x

Freeport, Tx - 60 Nm South Of Freeport, Tx (42019) Wave Buoy

6:50pm - Sun 24th Jul 2016 All times are CDT. -5 hours from GMT.

  • Sig Wave height 1.6ft
  • Swell Direction
  • Peak Period 5s
  • Average Period 4s
  • Wind
    9mph
  • Sea Temp 87°f
  • Air Temp 86°f
  • Sea Pressure 1013.2mb
  • Freeport, Tx - 60 Nm South Of Freeport, Tx
  • Freeport, Tx - 60 Nm South Of Freeport, Tx

More Historic Weather Station data

Upgrade to MSW Pro to gain access to the past 30 days of data for over 8000 Wavebouys and Weather Stations around the globe.

Join Pro

Comparision Forecast

View Surf forecast
   
Sun 07/24 6:50pm 1.6ft 5s 4s 9
mph
1013.2mb 87f 86f
5:50pm 1.6ft 5s 4s 9
mph
1012.9mb 87f 86f
4:50pm 1.6ft 5s 4s 7 9 mph 1013.1mb 87f 86f
3:50pm 1.6ft 5s 4s 9
mph
1013.3mb 87f 86f
2:50pm 2ft 5s 4s 9 11 mph 1013.9mb 87f 86f
1:50pm 1.6ft 5s 4s 9
mph
1014.6mb 87f 86f
12:50pm 1.6ft 4s 4s 9 11 mph 1014.8mb 87f 86f
11:50am 2ft 4s 4s 9 11 mph 1015mb 86f 86f
10:50am 2ft 4s 4s 9 11 mph 1015mb 86f 85f
9:50am 1.6ft 4s 4s 9 11 mph 1014.6mb 86f 85f
8:50am 2ft 4s 4s 7 9 mph 1014.6mb 87f 86f
7:50am 2ft 4s 4s 9 11 mph 1014.2mb 86f 86f
6:50am 2ft 4s 4s 11 16 mph 1013.3mb 86f 85f
5:50am 2.5ft 4s 4s 11 16 mph 1013.4mb 87f 85f
4:50am 2ft 4s 3s 16 18 mph 1012.7mb 87f 85f
3:50am 2.5ft 4s 3s 16 18 mph 1012.9mb 86f 85f
2:50am 2.5ft 4s 3s 16 18 mph 1013.3mb 87f 85f
1:50am 2.5ft 4s 3s 16 18 mph 1013.8mb 87f 86f
12:50am 2ft 3s 3s 16 20 mph 1014mb 87f 86f
Sat 07/23 11:50pm 1.6ft 4s 3s 13 16 mph 1014.4mb 87f 86f
10:50pm 1.6ft 4s 4s 13 16 mph 1013.8mb 87f 86f
9:50pm 1.6ft 4s 4s 11 13 mph 1013.4mb 87f 85f
8:50pm 1.6ft 5s 4s 11
mph
1012.8mb 87f 86f
7:50pm 1.6ft 6s 4s 9 11 mph 1012.7mb 88f 86f
6:50pm 1.6ft 4s 4s 7 9 mph 1012.8mb 88f 86f
5:50pm 1.6ft 5s 4s 9
mph
1013.3mb 88f 86f
4:50pm 2ft 4s 4s 9 11 mph 1013.9mb 88f 86f
3:50pm 2ft 4s 4s 7 9 mph 1014.4mb 88f 86f
2:50pm 1.6ft 5s 4s 9 11 mph 1014.8mb 88f 86f
1:50pm 2ft 6s 4s 9 11 mph 1015.6mb 88f 86f
12:50pm 2ft 6s 4s 4 7 mph 1015.7mb 88f 85f
11:50am 2ft 5s 4s 7
mph
1015.8mb 87f 85f
10:50am 1.6ft 7s 4s 7 9 mph 1015.6mb 87f 85f
9:50am 1.6ft 6s 4s 4
mph
1015.6mb 87f 85f
6:50am 1.6ft 5s 4s 9 11 mph 1014.5mb 87f 84f
5:50am 1.6ft 7s 4s 9
mph
1014.4mb 87f 84f
4:50am 1.6ft 6s 4s 9 11 mph 1014.7mb 86f 85f
3:50am 2ft 7s 4s 11
mph
1015.1mb 87f 85f
2:50am 2ft 3s 3s 11 13 mph 1015.1mb 87f 85f
1:50am 2ft 7s 4s 13 18 mph 1015.1mb 87f 85f
12:50am 2ft 7s 4s 13 18 mph 1015.4mb 87f 85f
Fri 07/22 11:50pm 1.6ft 6s 4s 11 13 mph 1015.6mb 87f 85f
10:50pm 2ft 6s 4s 13 16 mph 1015.3mb 87f 85f
9:50pm 1.6ft 6s 4s 11 16 mph 1015.2mb 87f 86f
8:50pm 2ft 6s 5s 9 11 mph 1015.4mb 88f 86f
7:50pm 2ft 5s 5s 7 9 mph 1015.3mb 88f 86f
6:50pm 2ft 6s 5s 7 9 mph 1015.1mb 88f 86f
5:50pm 2.5ft 7s 5s 7 9 mph 1015.6mb 88f 86f
4:50pm 2.5ft 7s 5s 9 11 mph 1016.4mb 88f 86f
3:50pm 2.5ft 6s 5s 7 9 mph 1017.2mb 88f 86f
2:50pm 2.5ft 6s 5s 7 9 mph 1018.1mb 88f 86f
1:50pm 2.5ft 6s 5s 7 9 mph 1018.3mb 88f 86f
12:50pm 2.5ft 6s 5s 9
mph
1018.8mb 87f 86f
11:50am 2.5ft 7s 5s 7
mph
1018.7mb 87f 86f
10:50am 2.5ft 5s 5s 7
mph
1018.7mb 87f 86f
9:50am 2.5ft 7s 5s 7 9 mph 1018.4mb 87f 86f
8:50am 2.5ft 6s 5s 4 7 mph 1018.4mb 87f 86f
7:50am 2.5ft 7s 5s 4 7 mph 1018mb 87f 86f
6:50am 2.5ft 7s 5s 7
mph
1017.4mb 87f 85f
5:50am 2.5ft 7s 5s 4 7 mph 1017.3mb 87f 85f
4:50am 2.5ft 7s 5s 4 7 mph 1017.1mb 87f 85f
3:50am 2.5ft 7s 5s 7 9 mph 1017.1mb 87f 85f
2:50am 2.5ft 7s 5s 9 11 mph 1017.1mb 87f 85f
1:50am 2.5ft 7s 4s 9 11 mph 1017.3mb 87f 85f
12:50am 2.5ft 7s 5s 11 13 mph 1017.6mb 87f 85f
Thu 07/21 11:50pm 2.5ft 7s 5s 9 11 mph 1017.7mb 87f 86f
10:50pm 2.5ft 7s 4s 9 11 mph 1017.6mb 87f 86f
9:50pm 2.5ft 8s 5s 11 13 mph 1017.7mb 87f 86f
8:50pm 2.5ft 8s 4s 9 11 mph 1017.6mb 87f 86f
7:50pm 2.5ft 8s 5s 11 13 mph 1017.7mb 87f 86f
6:50pm 2.5ft 7s 5s 11 13 mph 1017.7mb 87f 86f
5:50pm 2.5ft 8s 5s 9 11 mph 1017.7mb 87f 86f
4:50pm 2.5ft 8s 5s 11 13 mph 1018.4mb 87f 86f
3:50pm 2.5ft 8s 5s 7 9 mph 1018.7mb 87f 86f
2:50pm 3ft 8s 5s 11
mph
1019.4mb 87f 85f
1:50pm 3.5ft 6s 5s 13 18 mph 1020.1mb 87f 85f
12:50pm 3ft 7s 5s 11
mph
1020.4mb 87f 86f
11:50am 3ft 7s 6s 9 11 mph 1020.7mb 87f 86f
10:50am 3.5ft 7s 6s 4 7 mph 1020.5mb 86f 85f
9:50am 3ft 8s 6s 7 9 mph 1020.1mb 86f 86f
8:50am 3ft 7s 6s 7 9 mph 1019.8mb 86f 86f
7:50am 3.5ft 7s 6s 4 7 mph 1019.1mb 86f 86f
5:50am 3.5ft 7s 6s 4 7 mph 1018.1mb 87f 85f
4:50am 3ft 8s 5s 7 9 mph 1017.7mb 87f 85f
3:50am 3ft 7s 5s 9 11 mph 1017.7mb 87f 85f
2:50am 3ft 8s 5s 11
mph
1018.2mb 87f 85f
1:50am 3.5ft 8s 5s 11
mph
1018.6mb 87f 85f
12:50am 3.5ft 7s 5s 11 13 mph 1019.2mb 87f 86f